sensor_id;sensor_type;location;lat;lon;timestamp;P1;durP1;ratioP1;P2;durP2;ratioP2
18702;SDS011;9481;48.796;9.210;2022-08-07T00:01:34;1.13;;;0.80;;
18702;SDS011;9481;48.796;9.210;2022-08-07T00:04:00;0.80;;;0.77;;
18702;SDS011;9481;48.796;9.210;2022-08-07T00:06:26;0.83;;;0.60;;
18702;SDS011;9481;48.796;9.210;2022-08-07T00:08:52;1.13;;;0.83;;
18702;SDS011;9481;48.796;9.210;2022-08-07T00:11:18;1.13;;;1.00;;
18702;SDS011;9481;48.796;9.210;2022-08-07T00:13:44;0.93;;;0.80;;
18702;SDS011;9481;48.796;9.210;2022-08-07T00:16:11;1.87;;;1.03;;
18702;SDS011;9481;48.796;9.210;2022-08-07T00:18:38;2.40;;;0.90;;
18702;SDS011;9481;48.796;9.210;2022-08-07T00:21:05;0.70;;;0.70;;
18702;SDS011;9481;48.796;9.210;2022-08-07T00:23:33;0.77;;;0.70;;
18702;SDS011;9481;48.796;9.210;2022-08-07T00:26:03;0.70;;;0.70;;
18702;SDS011;9481;48.796;9.210;2022-08-07T00:28:32;0.97;;;0.80;;
18702;SDS011;9481;48.796;9.210;2022-08-07T00:30:58;1.70;;;1.00;;
18702;SDS011;9481;48.796;9.210;2022-08-07T00:33:29;1.90;;;0.90;;
18702;SDS011;9481;48.796;9.210;2022-08-07T00:35:55;0.80;;;0.80;;
18702;SDS011;9481;48.796;9.210;2022-08-07T00:38:22;0.80;;;0.80;;
18702;SDS011;9481;48.796;9.210;2022-08-07T00:40:48;1.23;;;1.00;;
18702;SDS011;9481;48.796;9.210;2022-08-07T00:43:14;0.97;;;0.80;;
18702;SDS011;9481;48.796;9.210;2022-08-07T00:45:40;1.50;;;0.80;;
18702;SDS011;9481;48.796;9.210;2022-08-07T00:48:07;1.93;;;0.87;;
18702;SDS011;9481;48.796;9.210;2022-08-07T00:50:35;1.10;;;0.80;;
18702;SDS011;9481;48.796;9.210;2022-08-07T00:53:02;2.70;;;1.00;;
18702;SDS011;9481;48.796;9.210;2022-08-07T00:55:28;1.73;;;0.90;;
18702;SDS011;9481;48.796;9.210;2022-08-07T00:57:54;4.50;;;0.90;;
18702;SDS011;9481;48.796;9.210;2022-08-07T01:00:20;1.10;;;1.00;;
18702;SDS011;9481;48.796;9.210;2022-08-07T01:02:47;1.10;;;0.70;;
18702;SDS011;9481;48.796;9.210;2022-08-07T01:05:12;1.47;;;0.90;;
18702;SDS011;9481;48.796;9.210;2022-08-07T01:07:40;0.77;;;0.73;;
18702;SDS011;9481;48.796;9.210;2022-08-07T01:10:06;1.07;;;0.80;;
18702;SDS011;9481;48.796;9.210;2022-08-07T01:12:35;0.80;;;0.80;;
18702;SDS011;9481;48.796;9.210;2022-08-07T01:15:02;0.93;;;0.93;;
18702;SDS011;9481;48.796;9.210;2022-08-07T01:17:30;1.00;;;0.70;;
18702;SDS011;9481;48.796;9.210;2022-08-07T01:20:08;1.23;;;1.00;;
18702;SDS011;9481;48.796;9.210;2022-08-07T01:22:36;0.70;;;0.70;;
18702;SDS011;9481;48.796;9.210;2022-08-07T01:25:04;1.90;;;0.80;;
18702;SDS011;9481;48.796;9.210;2022-08-07T01:27:34;1.60;;;0.80;;
18702;SDS011;9481;48.796;9.210;2022-08-07T01:30:01;1.17;;;1.00;;
18702;SDS011;9481;48.796;9.210;2022-08-07T01:32:28;0.70;;;0.70;;
18702;SDS011;9481;48.796;9.210;2022-08-07T01:34:55;3.70;;;0.80;;
18702;SDS011;9481;48.796;9.210;2022-08-07T01:37:21;0.90;;;0.87;;
18702;SDS011;9481;48.796;9.210;2022-08-07T01:39:47;1.10;;;0.80;;
18702;SDS011;9481;48.796;9.210;2022-08-07T01:42:13;1.30;;;0.90;;
18702;SDS011;9481;48.796;9.210;2022-08-07T01:44:40;0.77;;;0.77;;
18702;SDS011;9481;48.796;9.210;2022-08-07T01:47:06;1.63;;;0.80;;
18702;SDS011;9481;48.796;9.210;2022-08-07T01:49:34;1.03;;;0.80;;
18702;SDS011;9481;48.796;9.210;2022-08-07T01:52:01;1.27;;;0.80;;
18702;SDS011;9481;48.796;9.210;2022-08-07T01:54:30;1.00;;;0.90;;
18702;SDS011;9481;48.796;9.210;2022-08-07T01:57:03;1.43;;;1.00;;
18702;SDS011;9481;48.796;9.210;2022-08-07T02:00:03;1.20;;;0.70;;
18702;SDS011;9481;48.796;9.210;2022-08-07T02:02:52;1.30;;;0.90;;
18702;SDS011;9481;48.796;9.210;2022-08-07T02:05:25;0.70;;;0.70;;
18702;SDS011;9481;48.796;9.210;2022-08-07T02:07:58;0.80;;;0.80;;
18702;SDS011;9481;48.796;9.210;2022-08-07T02:10:29;1.03;;;0.87;;
18702;SDS011;9481;48.796;9.210;2022-08-07T02:12:58;1.87;;;1.00;;
18702;SDS011;9481;48.796;9.210;2022-08-07T02:15:27;1.23;;;1.03;;
18702;SDS011;9481;48.796;9.210;2022-08-07T02:17:55;1.57;;;0.90;;
18702;SDS011;9481;48.796;9.210;2022-08-07T02:20:24;1.50;;;0.70;;
18702;SDS011;9481;48.796;9.210;2022-08-07T02:22:55;0.90;;;0.80;;
18702;SDS011;9481;48.796;9.210;2022-08-07T02:25:26;0.87;;;0.73;;
18702;SDS011;9481;48.796;9.210;2022-08-07T02:27:56;0.73;;;0.73;;
18702;SDS011;9481;48.796;9.210;2022-08-07T02:30:25;1.07;;;0.80;;
18702;SDS011;9481;48.796;9.210;2022-08-07T02:32:53;1.43;;;1.00;;
18702;SDS011;9481;48.796;9.210;2022-08-07T02:35:23;1.47;;;1.03;;
18702;SDS011;9481;48.796;9.210;2022-08-07T02:37:50;1.33;;;0.93;;
18702;SDS011;9481;48.796;9.210;2022-08-07T02:40:17;1.07;;;1.00;;
18702;SDS011;9481;48.796;9.210;2022-08-07T02:42:43;0.90;;;0.90;;
18702;SDS011;9481;48.796;9.210;2022-08-07T02:45:11;4.30;;;1.10;;
18702;SDS011;9481;48.796;9.210;2022-08-07T02:47:40;1.00;;;0.83;;
18702;SDS011;9481;48.796;9.210;2022-08-07T02:50:06;1.07;;;1.03;;
18702;SDS011;9481;48.796;9.210;2022-08-07T02:52:43;1.30;;;0.90;;
18702;SDS011;9481;48.796;9.210;2022-08-07T02:55:21;1.83;;;0.80;;
18702;SDS011;9481;48.796;9.210;2022-08-07T02:57:51;1.00;;;0.90;;
18702;SDS011;9481;48.796;9.210;2022-08-07T03:00:19;1.33;;;0.80;;
18702;SDS011;9481;48.796;9.210;2022-08-07T03:02:47;1.43;;;0.90;;
18702;SDS011;9481;48.796;9.210;2022-08-07T03:05:16;3.43;;;0.90;;
18702;SDS011;9481;48.796;9.210;2022-08-07T03:07:43;1.10;;;0.83;;
18702;SDS011;9481;48.796;9.210;2022-08-07T03:10:11;1.40;;;1.10;;
18702;SDS011;9481;48.796;9.210;2022-08-07T03:12:38;0.97;;;0.80;;
18702;SDS011;9481;48.796;9.210;2022-08-07T03:15:05;0.90;;;0.80;;
18702;SDS011;9481;48.796;9.210;2022-08-07T03:17:32;1.10;;;1.00;;
18702;SDS011;9481;48.796;9.210;2022-08-07T03:20:01;1.53;;;1.00;;
18702;SDS011;9481;48.796;9.210;2022-08-07T03:22:28;1.10;;;0.97;;
18702;SDS011;9481;48.796;9.210;2022-08-07T03:24:55;1.77;;;1.10;;
18702;SDS011;9481;48.796;9.210;2022-08-07T03:27:24;2.83;;;1.20;;
18702;SDS011;9481;48.796;9.210;2022-08-07T03:29:51;1.33;;;0.87;;
18702;SDS011;9481;48.796;9.210;2022-08-07T03:32:18;1.17;;;0.90;;
18702;SDS011;9481;48.796;9.210;2022-08-07T03:34:50;0.90;;;0.90;;
18702;SDS011;9481;48.796;9.210;2022-08-07T03:37:23;1.17;;;1.00;;
18702;SDS011;9481;48.796;9.210;2022-08-07T03:39:51;0.80;;;0.80;;
18702;SDS011;9481;48.796;9.210;2022-08-07T03:42:17;2.13;;;1.10;;
18702;SDS011;9481;48.796;9.210;2022-08-07T03:44:44;1.00;;;0.83;;
18702;SDS011;9481;48.796;9.210;2022-08-07T03:47:11;1.10;;;1.00;;
18702;SDS011;9481;48.796;9.210;2022-08-07T03:49:37;2.53;;;0.90;;
18702;SDS011;9481;48.796;9.210;2022-08-07T03:52:04;1.00;;;0.90;;
18702;SDS011;9481;48.796;9.210;2022-08-07T03:54:31;1.20;;;1.00;;
18702;SDS011;9481;48.796;9.210;2022-08-07T03:56:59;1.43;;;0.90;;
18702;SDS011;9481;48.796;9.210;2022-08-07T03:59:27;2.47;;;1.10;;
18702;SDS011;9481;48.796;9.210;2022-08-07T04:01:56;0.97;;;0.90;;
18702;SDS011;9481;48.796;9.210;2022-08-07T04:04:22;1.97;;;0.90;;
18702;SDS011;9481;48.796;9.210;2022-08-07T04:06:49;0.90;;;0.90;;
18702;SDS011;9481;48.796;9.210;2022-08-07T04:09:15;1.20;;;1.10;;
18702;SDS011;9481;48.796;9.210;2022-08-07T04:11:43;3.57;;;1.10;;
18702;SDS011;9481;48.796;9.210;2022-08-07T04:14:10;1.23;;;1.00;;
18702;SDS011;9481;48.796;9.210;2022-08-07T04:16:37;1.27;;;1.00;;
18702;SDS011;9481;48.796;9.210;2022-08-07T04:19:03;1.07;;;0.97;;
18702;SDS011;9481;48.796;9.210;2022-08-07T04:21:31;1.93;;;1.00;;
18702;SDS011;9481;48.796;9.210;2022-08-07T04:23:57;0.80;;;0.80;;
18702;SDS011;9481;48.796;9.210;2022-08-07T04:26:24;2.20;;;1.10;;
18702;SDS011;9481;48.796;9.210;2022-08-07T04:28:50;1.00;;;0.90;;
18702;SDS011;9481;48.796;9.210;2022-08-07T04:31:16;1.80;;;1.00;;
18702;SDS011;9481;48.796;9.210;2022-08-07T04:33:42;1.33;;;0.90;;
18702;SDS011;9481;48.796;9.210;2022-08-07T04:36:10;4.10;;;1.00;;
18702;SDS011;9481;48.796;9.210;2022-08-07T04:38:38;1.20;;;1.07;;
18702;SDS011;9481;48.796;9.210;2022-08-07T04:41:04;1.30;;;1.00;;
18702;SDS011;9481;48.796;9.210;2022-08-07T04:43:34;2.70;;;1.20;;
18702;SDS011;9481;48.796;9.210;2022-08-07T04:51:22;1.67;;;1.20;;
18702;SDS011;9481;48.796;9.210;2022-08-07T04:54:03;1.17;;;1.07;;
18702;SDS011;9481;48.796;9.210;2022-08-07T04:56:58;1.30;;;1.10;;
18702;SDS011;9481;48.796;9.210;2022-08-07T05:00:05;1.57;;;1.30;;
18702;SDS011;9481;48.796;9.210;2022-08-07T05:08:19;1.67;;;1.53;;
18702;SDS011;9481;48.796;9.210;2022-08-07T05:10:57;1.50;;;1.40;;
18702;SDS011;9481;48.796;9.210;2022-08-07T05:13:35;2.20;;;1.40;;
18702;SDS011;9481;48.796;9.210;2022-08-07T05:16:10;2.37;;;1.50;;
18702;SDS011;9481;48.796;9.210;2022-08-07T05:18:45;1.67;;;1.40;;
18702;SDS011;9481;48.796;9.210;2022-08-07T05:21:20;2.47;;;1.67;;
18702;SDS011;9481;48.796;9.210;2022-08-07T05:23:52;2.30;;;1.53;;
18702;SDS011;9481;48.796;9.210;2022-08-07T05:26:26;3.53;;;1.70;;
18702;SDS011;9481;48.796;9.210;2022-08-07T05:28:56;2.83;;;2.07;;
18702;SDS011;9481;48.796;9.210;2022-08-07T05:31:27;2.00;;;1.80;;
18702;SDS011;9481;48.796;9.210;2022-08-07T05:33:58;2.17;;;1.97;;
18702;SDS011;9481;48.796;9.210;2022-08-07T05:36:25;1.80;;;1.70;;
18702;SDS011;9481;48.796;9.210;2022-08-07T05:38:53;2.37;;;1.90;;
18702;SDS011;9481;48.796;9.210;2022-08-07T05:41:21;2.87;;;1.90;;
18702;SDS011;9481;48.796;9.210;2022-08-07T05:43:49;1.93;;;1.80;;
18702;SDS011;9481;48.796;9.210;2022-08-07T05:46:21;1.80;;;1.70;;
18702;SDS011;9481;48.796;9.210;2022-08-07T05:48:48;2.80;;;2.00;;
18702;SDS011;9481;48.796;9.210;2022-08-07T05:51:17;2.13;;;1.90;;
18702;SDS011;9481;48.796;9.210;2022-08-07T05:53:44;2.70;;;2.00;;
18702;SDS011;9481;48.796;9.210;2022-08-07T05:56:11;1.97;;;1.87;;
18702;SDS011;9481;48.796;9.210;2022-08-07T05:58:40;2.37;;;1.97;;
18702;SDS011;9481;48.796;9.210;2022-08-07T06:01:10;2.53;;;2.30;;
18702;SDS011;9481;48.796;9.210;2022-08-07T06:03:38;2.87;;;2.17;;
18702;SDS011;9481;48.796;9.210;2022-08-07T06:06:12;2.63;;;2.43;;
18702;SDS011;9481;48.796;9.210;2022-08-07T06:08:40;2.40;;;2.20;;
18702;SDS011;9481;48.796;9.210;2022-08-07T06:11:07;2.30;;;2.10;;
18702;SDS011;9481;48.796;9.210;2022-08-07T06:13:36;2.43;;;2.23;;
18702;SDS011;9481;48.796;9.210;2022-08-07T06:16:02;2.90;;;2.23;;
18702;SDS011;9481;48.796;9.210;2022-08-07T06:18:31;2.30;;;2.10;;
18702;SDS011;9481;48.796;9.210;2022-08-07T06:20:59;2.30;;;2.00;;
18702;SDS011;9481;48.796;9.210;2022-08-07T06:23:26;2.27;;;1.90;;
18702;SDS011;9481;48.796;9.210;2022-08-07T06:25:53;2.20;;;2.07;;
18702;SDS011;9481;48.796;9.210;2022-08-07T06:28:19;2.70;;;2.07;;
18702;SDS011;9481;48.796;9.210;2022-08-07T06:30:46;3.83;;;2.70;;
18702;SDS011;9481;48.796;9.210;2022-08-07T06:33:12;2.93;;;2.63;;
18702;SDS011;9481;48.796;9.210;2022-08-07T06:35:38;3.07;;;2.60;;
18702;SDS011;9481;48.796;9.210;2022-08-07T06:38:05;2.33;;;2.10;;
18702;SDS011;9481;48.796;9.210;2022-08-07T06:40:50;2.37;;;2.17;;
18702;SDS011;9481;48.796;9.210;2022-08-07T06:43:20;3.27;;;2.20;;
18702;SDS011;9481;48.796;9.210;2022-08-07T06:45:48;2.50;;;2.30;;
18702;SDS011;9481;48.796;9.210;2022-08-07T06:48:14;2.13;;;2.00;;
18702;SDS011;9481;48.796;9.210;2022-08-07T06:50:40;2.27;;;1.90;;
18702;SDS011;9481;48.796;9.210;2022-08-07T06:53:09;2.73;;;2.30;;
18702;SDS011;9481;48.796;9.210;2022-08-07T06:55:38;2.40;;;2.20;;
18702;SDS011;9481;48.796;9.210;2022-08-07T06:58:07;2.20;;;2.00;;
18702;SDS011;9481;48.796;9.210;2022-08-07T07:00:37;1.73;;;1.50;;
18702;SDS011;9481;48.796;9.210;2022-08-07T07:03:05;1.83;;;1.63;;
18702;SDS011;9481;48.796;9.210;2022-08-07T07:05:32;1.63;;;1.53;;
18702;SDS011;9481;48.796;9.210;2022-08-07T07:07:58;1.87;;;1.77;;
18702;SDS011;9481;48.796;9.210;2022-08-07T07:10:31;1.70;;;1.60;;
18702;SDS011;9481;48.796;9.210;2022-08-07T07:13:18;2.50;;;1.63;;
18702;SDS011;9481;48.796;9.210;2022-08-07T07:15:54;8.40;;;1.50;;
18702;SDS011;9481;48.796;9.210;2022-08-07T07:18:32;1.63;;;1.53;;
18702;SDS011;9481;48.796;9.210;2022-08-07T07:21:11;1.70;;;1.60;;
18702;SDS011;9481;48.796;9.210;2022-08-07T07:23:44;1.50;;;1.40;;
18702;SDS011;9481;48.796;9.210;2022-08-07T07:26:13;1.47;;;1.37;;
18702;SDS011;9481;48.796;9.210;2022-08-07T07:28:56;1.77;;;1.43;;
18702;SDS011;9481;48.796;9.210;2022-08-07T07:31:42;1.40;;;1.30;;
18702;SDS011;9481;48.796;9.210;2022-08-07T07:34:14;3.43;;;1.30;;
18702;SDS011;9481;48.796;9.210;2022-08-07T07:36:45;1.27;;;1.17;;
18702;SDS011;9481;48.796;9.210;2022-08-07T07:39:14;1.33;;;1.10;;
18702;SDS011;9481;48.796;9.210;2022-08-07T07:41:41;1.53;;;1.00;;
18702;SDS011;9481;48.796;9.210;2022-08-07T07:44:13;1.10;;;1.00;;
18702;SDS011;9481;48.796;9.210;2022-08-07T07:46:42;1.13;;;1.03;;
18702;SDS011;9481;48.796;9.210;2022-08-07T07:49:10;1.20;;;1.00;;
18702;SDS011;9481;48.796;9.210;2022-08-07T07:51:42;1.23;;;1.03;;
18702;SDS011;9481;48.796;9.210;2022-08-07T07:54:12;2.10;;;1.10;;
18702;SDS011;9481;48.796;9.210;2022-08-07T07:56:42;1.07;;;1.03;;
18702;SDS011;9481;48.796;9.210;2022-08-07T07:59:09;1.87;;;1.00;;
18702;SDS011;9481;48.796;9.210;2022-08-07T08:01:39;0.90;;;0.90;;
18702;SDS011;9481;48.796;9.210;2022-08-07T08:04:10;1.10;;;1.00;;
18702;SDS011;9481;48.796;9.210;2022-08-07T08:06:42;2.03;;;1.03;;
18702;SDS011;9481;48.796;9.210;2022-08-07T08:09:10;1.33;;;1.00;;
18702;SDS011;9481;48.796;9.210;2022-08-07T08:11:40;0.90;;;0.90;;
18702;SDS011;9481;48.796;9.210;2022-08-07T08:14:07;2.73;;;1.07;;
18702;SDS011;9481;48.796;9.210;2022-08-07T08:16:35;0.97;;;0.80;;
18702;SDS011;9481;48.796;9.210;2022-08-07T08:19:06;1.03;;;0.90;;
18702;SDS011;9481;48.796;9.210;2022-08-07T08:21:38;0.87;;;0.87;;
18702;SDS011;9481;48.796;9.210;2022-08-07T08:24:28;1.63;;;1.17;;
18702;SDS011;9481;48.796;9.210;2022-08-07T08:27:20;2.20;;;0.87;;
18702;SDS011;9481;48.796;9.210;2022-08-07T08:30:03;1.00;;;0.90;;
18702;SDS011;9481;48.796;9.210;2022-08-07T08:32:34;0.80;;;0.80;;
18702;SDS011;9481;48.796;9.210;2022-08-07T08:35:24;0.90;;;0.90;;
18702;SDS011;9481;48.796;9.210;2022-08-07T08:37:55;1.50;;;0.90;;
18702;SDS011;9481;48.796;9.210;2022-08-07T08:40:31;1.07;;;0.97;;
18702;SDS011;9481;48.796;9.210;2022-08-07T08:43:13;0.77;;;0.77;;
18702;SDS011;9481;48.796;9.210;2022-08-07T08:48:41;1.27;;;0.90;;
18702;SDS011;9481;48.796;9.210;2022-08-07T08:51:18;1.80;;;1.00;;
18702;SDS011;9481;48.796;9.210;2022-08-07T08:54:09;1.80;;;1.00;;
18702;SDS011;9481;48.796;9.210;2022-08-07T08:57:02;0.90;;;0.90;;
18702;SDS011;9481;48.796;9.210;2022-08-07T09:05:21;0.83;;;0.83;;
18702;SDS011;9481;48.796;9.210;2022-08-07T09:08:10;1.37;;;0.80;;
18702;SDS011;9481;48.796;9.210;2022-08-07T09:17:11;0.80;;;0.80;;
18702;SDS011;9481;48.796;9.210;2022-08-07T09:20:09;0.70;;;0.70;;
18702;SDS011;9481;48.796;9.210;2022-08-07T09:23:11;2.40;;;0.70;;
18702;SDS011;9481;48.796;9.210;2022-08-07T09:28:52;0.80;;;0.80;;
18702;SDS011;9481;48.796;9.210;2022-08-07T09:31:32;2.10;;;0.63;;
18702;SDS011;9481;48.796;9.210;2022-08-07T09:34:13;0.80;;;0.60;;
18702;SDS011;9481;48.796;9.210;2022-08-07T09:37:13;0.80;;;0.80;;
18702;SDS011;9481;48.796;9.210;2022-08-07T09:39:58;0.63;;;0.63;;
18702;SDS011;9481;48.796;9.210;2022-08-07T09:42:53;0.80;;;0.80;;
18702;SDS011;9481;48.796;9.210;2022-08-07T09:45:46;0.67;;;0.67;;
18702;SDS011;9481;48.796;9.210;2022-08-07T09:48:57;0.57;;;0.57;;
18702;SDS011;9481;48.796;9.210;2022-08-07T09:51:43;0.77;;;0.70;;
18702;SDS011;9481;48.796;9.210;2022-08-07T09:54:25;0.50;;;0.50;;
18702;SDS011;9481;48.796;9.210;2022-08-07T09:57:12;0.60;;;0.60;;
18702;SDS011;9481;48.796;9.210;2022-08-07T10:00:12;1.43;;;0.90;;
18702;SDS011;9481;48.796;9.210;2022-08-07T10:17:49;0.67;;;0.60;;
18702;SDS011;9481;48.796;9.210;2022-08-07T10:26:00;0.53;;;0.53;;
18702;SDS011;9481;48.796;9.210;2022-08-07T10:46:29;1.73;;;0.50;;
18702;SDS011;9481;48.796;9.210;2022-08-07T10:49:14;0.83;;;0.60;;
18702;SDS011;9481;48.796;9.210;2022-08-07T10:52:04;0.83;;;0.63;;
18702;SDS011;9481;48.796;9.210;2022-08-07T10:54:58;0.70;;;0.60;;
18702;SDS011;9481;48.796;9.210;2022-08-07T11:00:46;0.60;;;0.60;;
18702;SDS011;9481;48.796;9.210;2022-08-07T11:03:28;1.83;;;0.70;;
18702;SDS011;9481;48.796;9.210;2022-08-07T11:06:18;0.60;;;0.60;;
18702;SDS011;9481;48.796;9.210;2022-08-07T11:11:34;0.73;;;0.70;;
18702;SDS011;9481;48.796;9.210;2022-08-07T11:14:29;0.60;;;0.60;;
18702;SDS011;9481;48.796;9.210;2022-08-07T11:17:18;0.93;;;0.80;;
18702;SDS011;9481;48.796;9.210;2022-08-07T11:20:07;0.70;;;0.70;;
18702;SDS011;9481;48.796;9.210;2022-08-07T11:23:09;0.80;;;0.80;;
18702;SDS011;9481;48.796;9.210;2022-08-07T11:26:15;2.73;;;0.73;;
18702;SDS011;9481;48.796;9.210;2022-08-07T11:29:10;0.60;;;0.60;;
18702;SDS011;9481;48.796;9.210;2022-08-07T11:31:54;0.50;;;0.50;;
18702;SDS011;9481;48.796;9.210;2022-08-07T11:51:45;0.60;;;0.60;;
18702;SDS011;9481;48.796;9.210;2022-08-07T11:57:20;1.33;;;0.80;;
18702;SDS011;9481;48.796;9.210;2022-08-07T12:08:43;0.70;;;0.70;;
18702;SDS011;9481;48.796;9.210;2022-08-07T12:11:29;0.87;;;0.70;;
18702;SDS011;9481;48.796;9.210;2022-08-07T12:14:14;0.70;;;0.70;;
18702;SDS011;9481;48.796;9.210;2022-08-07T12:16:51;0.67;;;0.50;;
18702;SDS011;9481;48.796;9.210;2022-08-07T12:25:31;0.70;;;0.70;;
18702;SDS011;9481;48.796;9.210;2022-08-07T12:31:28;0.87;;;0.70;;
18702;SDS011;9481;48.796;9.210;2022-08-07T12:34:02;0.60;;;0.60;;
18702;SDS011;9481;48.796;9.210;2022-08-07T12:36:30;2.10;;;0.70;;
18702;SDS011;9481;48.796;9.210;2022-08-07T12:39:01;1.33;;;0.90;;
18702;SDS011;9481;48.796;9.210;2022-08-07T12:41:29;0.80;;;0.80;;
18702;SDS011;9481;48.796;9.210;2022-08-07T12:44:00;0.77;;;0.70;;
18702;SDS011;9481;48.796;9.210;2022-08-07T12:46:35;1.13;;;0.60;;
18702;SDS011;9481;48.796;9.210;2022-08-07T12:55:13;0.80;;;0.80;;
18702;SDS011;9481;48.796;9.210;2022-08-07T12:57:49;0.67;;;0.67;;
18702;SDS011;9481;48.796;9.210;2022-08-07T13:00:19;0.73;;;0.70;;
18702;SDS011;9481;48.796;9.210;2022-08-07T13:03:02;0.70;;;0.70;;
18702;SDS011;9481;48.796;9.210;2022-08-07T13:08:33;0.73;;;0.73;;
18702;SDS011;9481;48.796;9.210;2022-08-07T13:11:33;2.20;;;0.87;;
18702;SDS011;9481;48.796;9.210;2022-08-07T13:23:02;1.37;;;0.90;;
18702;SDS011;9481;48.796;9.210;2022-08-07T13:25:37;0.70;;;0.70;;
18702;SDS011;9481;48.796;9.210;2022-08-07T13:28:17;1.07;;;0.77;;
18702;SDS011;9481;48.796;9.210;2022-08-07T13:34:11;0.73;;;0.73;;
18702;SDS011;9481;48.796;9.210;2022-08-07T13:37:12;0.60;;;0.60;;
18702;SDS011;9481;48.796;9.210;2022-08-07T13:39:58;0.80;;;0.80;;
18702;SDS011;9481;48.796;9.210;2022-08-07T13:42:49;4.63;;;0.70;;
18702;SDS011;9481;48.796;9.210;2022-08-07T13:45:18;0.63;;;0.63;;
18702;SDS011;9481;48.796;9.210;2022-08-07T13:47:46;0.80;;;0.73;;
18702;SDS011;9481;48.796;9.210;2022-08-07T13:50:18;0.70;;;0.70;;
18702;SDS011;9481;48.796;9.210;2022-08-07T13:52:47;2.17;;;1.10;;
18702;SDS011;9481;48.796;9.210;2022-08-07T13:55:16;0.80;;;0.80;;
18702;SDS011;9481;48.796;9.210;2022-08-07T13:57:45;1.00;;;0.93;;
18702;SDS011;9481;48.796;9.210;2022-08-07T14:00:22;0.70;;;0.70;;
18702;SDS011;9481;48.796;9.210;2022-08-07T14:03:01;0.90;;;0.77;;
18702;SDS011;9481;48.796;9.210;2022-08-07T14:05:30;1.20;;;0.93;;
18702;SDS011;9481;48.796;9.210;2022-08-07T14:07:56;0.80;;;0.80;;
18702;SDS011;9481;48.796;9.210;2022-08-07T14:10:24;0.80;;;0.80;;
18702;SDS011;9481;48.796;9.210;2022-08-07T14:17:55;1.10;;;0.80;;
18702;SDS011;9481;48.796;9.210;2022-08-07T14:20:28;1.97;;;0.90;;
18702;SDS011;9481;48.796;9.210;2022-08-07T14:23:03;1.00;;;0.90;;
18702;SDS011;9481;48.796;9.210;2022-08-07T14:25:41;0.80;;;0.80;;
18702;SDS011;9481;48.796;9.210;2022-08-07T14:28:11;0.83;;;0.80;;
18702;SDS011;9481;48.796;9.210;2022-08-07T14:30:45;1.10;;;1.00;;
18702;SDS011;9481;48.796;9.210;2022-08-07T14:33:13;0.97;;;0.80;;
18702;SDS011;9481;48.796;9.210;2022-08-07T14:35:41;1.00;;;0.90;;
18702;SDS011;9481;48.796;9.210;2022-08-07T14:38:09;1.03;;;0.90;;
18702;SDS011;9481;48.796;9.210;2022-08-07T14:40:36;1.30;;;0.80;;
18702;SDS011;9481;48.796;9.210;2022-08-07T14:43:05;0.90;;;0.90;;
18702;SDS011;9481;48.796;9.210;2022-08-07T14:45:39;1.43;;;0.97;;
18702;SDS011;9481;48.796;9.210;2022-08-07T14:48:12;0.80;;;0.80;;
18702;SDS011;9481;48.796;9.210;2022-08-07T14:50:42;1.03;;;0.93;;
18702;SDS011;9481;48.796;9.210;2022-08-07T14:53:12;1.33;;;0.90;;
18702;SDS011;9481;48.796;9.210;2022-08-07T14:55:39;1.83;;;0.73;;
18702;SDS011;9481;48.796;9.210;2022-08-07T14:58:08;1.00;;;0.90;;
18702;SDS011;9481;48.796;9.210;2022-08-07T15:00:38;0.80;;;0.80;;
18702;SDS011;9481;48.796;9.210;2022-08-07T15:03:08;1.80;;;0.80;;
18702;SDS011;9481;48.796;9.210;2022-08-07T15:05:35;0.77;;;0.77;;
18702;SDS011;9481;48.796;9.210;2022-08-07T15:08:05;2.10;;;0.80;;
18702;SDS011;9481;48.796;9.210;2022-08-07T15:10:34;0.90;;;0.80;;
18702;SDS011;9481;48.796;9.210;2022-08-07T15:13:08;0.70;;;0.70;;
18702;SDS011;9481;48.796;9.210;2022-08-07T15:15:48;0.87;;;0.70;;
18702;SDS011;9481;48.796;9.210;2022-08-07T15:18:21;0.93;;;0.93;;
18702;SDS011;9481;48.796;9.210;2022-08-07T15:20:58;0.70;;;0.70;;
18702;SDS011;9481;48.796;9.210;2022-08-07T15:23:29;1.00;;;0.80;;
18702;SDS011;9481;48.796;9.210;2022-08-07T15:25:58;0.77;;;0.77;;
18702;SDS011;9481;48.796;9.210;2022-08-07T15:28:29;0.90;;;0.90;;
18702;SDS011;9481;48.796;9.210;2022-08-07T15:31:03;1.77;;;0.87;;
18702;SDS011;9481;48.796;9.210;2022-08-07T15:33:34;0.77;;;0.77;;
18702;SDS011;9481;48.796;9.210;2022-08-07T15:36:05;0.80;;;0.80;;
18702;SDS011;9481;48.796;9.210;2022-08-07T15:38:34;1.20;;;1.10;;
18702;SDS011;9481;48.796;9.210;2022-08-07T15:41:09;1.07;;;0.97;;
18702;SDS011;9481;48.796;9.210;2022-08-07T15:43:41;1.30;;;1.20;;
18702;SDS011;9481;48.796;9.210;2022-08-07T15:46:21;1.07;;;0.83;;
18702;SDS011;9481;48.796;9.210;2022-08-07T15:48:53;1.00;;;0.90;;
18702;SDS011;9481;48.796;9.210;2022-08-07T15:51:22;0.80;;;0.80;;
18702;SDS011;9481;48.796;9.210;2022-08-07T15:53:52;1.20;;;1.10;;
18702;SDS011;9481;48.796;9.210;2022-08-07T15:56:23;0.80;;;0.80;;
18702;SDS011;9481;48.796;9.210;2022-08-07T15:59:06;1.33;;;1.10;;
18702;SDS011;9481;48.796;9.210;2022-08-07T16:01:43;0.70;;;0.70;;
18702;SDS011;9481;48.796;9.210;2022-08-07T16:04:12;1.13;;;0.80;;
18702;SDS011;9481;48.796;9.210;2022-08-07T16:06:51;1.23;;;1.10;;
18702;SDS011;9481;48.796;9.210;2022-08-07T16:09:22;2.07;;;0.80;;
18702;SDS011;9481;48.796;9.210;2022-08-07T16:12:09;0.90;;;0.90;;
18702;SDS011;9481;48.796;9.210;2022-08-07T16:18:14;1.23;;;1.10;;
18702;SDS011;9481;48.796;9.210;2022-08-07T16:29:46;0.90;;;0.90;;
18702;SDS011;9481;48.796;9.210;2022-08-07T16:32:43;2.10;;;1.00;;
18702;SDS011;9481;48.796;9.210;2022-08-07T16:38:05;0.80;;;0.80;;
18702;SDS011;9481;48.796;9.210;2022-08-07T16:47:57;1.37;;;0.83;;
18702;SDS011;9481;48.796;9.210;2022-08-07T16:50:43;0.80;;;0.80;;
18702;SDS011;9481;48.796;9.210;2022-08-07T16:57:13;3.17;;;0.90;;
18702;SDS011;9481;48.796;9.210;2022-08-07T17:05:11;1.43;;;0.80;;
18702;SDS011;9481;48.796;9.210;2022-08-07T17:07:56;1.10;;;1.00;;
18702;SDS011;9481;48.796;9.210;2022-08-07T17:10:45;0.90;;;0.90;;
18702;SDS011;9481;48.796;9.210;2022-08-07T17:18:36;0.90;;;0.90;;
18702;SDS011;9481;48.796;9.210;2022-08-07T17:21:14;1.33;;;0.93;;
18702;SDS011;9481;48.796;9.210;2022-08-07T17:32:20;1.27;;;0.80;;
18702;SDS011;9481;48.796;9.210;2022-08-07T17:34:54;1.20;;;0.90;;
18702;SDS011;9481;48.796;9.210;2022-08-07T17:37:34;0.73;;;0.73;;
18702;SDS011;9481;48.796;9.210;2022-08-07T17:40:31;1.00;;;0.80;;
18702;SDS011;9481;48.796;9.210;2022-08-07T17:43:19;0.80;;;0.80;;
18702;SDS011;9481;48.796;9.210;2022-08-07T17:45:55;1.17;;;0.90;;
18702;SDS011;9481;48.796;9.210;2022-08-07T17:49:29;3.90;;;0.77;;
18702;SDS011;9481;48.796;9.210;2022-08-07T17:51:54;0.77;;;0.77;;
18702;SDS011;9481;48.796;9.210;2022-08-07T17:57:25;1.07;;;1.00;;
18702;SDS011;9481;48.796;9.210;2022-08-07T18:00:25;0.80;;;0.80;;
18702;SDS011;9481;48.796;9.210;2022-08-07T18:02:57;1.07;;;0.97;;
18702;SDS011;9481;48.796;9.210;2022-08-07T18:05:44;0.83;;;0.83;;
18702;SDS011;9481;48.796;9.210;2022-08-07T18:08:19;0.80;;;0.80;;
18702;SDS011;9481;48.796;9.210;2022-08-07T18:19:58;0.80;;;0.80;;
18702;SDS011;9481;48.796;9.210;2022-08-07T18:22:51;2.27;;;0.97;;
18702;SDS011;9481;48.796;9.210;2022-08-07T18:25:34;0.80;;;0.80;;
18702;SDS011;9481;48.796;9.210;2022-08-07T18:28:18;0.90;;;0.90;;
18702;SDS011;9481;48.796;9.210;2022-08-07T18:33:38;1.43;;;0.77;;
18702;SDS011;9481;48.796;9.210;2022-08-07T18:39:13;1.00;;;0.90;;
18702;SDS011;9481;48.796;9.210;2022-08-07T18:44:57;1.20;;;0.83;;
18702;SDS011;9481;48.796;9.210;2022-08-07T18:48:02;0.80;;;0.80;;
18702;SDS011;9481;48.796;9.210;2022-08-07T18:50:42;2.60;;;2.10;;
18702;SDS011;9481;48.796;9.210;2022-08-07T18:58:49;1.47;;;1.20;;
18702;SDS011;9481;48.796;9.210;2022-08-07T19:01:32;1.90;;;0.93;;
18702;SDS011;9481;48.796;9.210;2022-08-07T19:04:44;1.17;;;0.80;;
18702;SDS011;9481;48.796;9.210;2022-08-07T19:10:28;1.73;;;1.00;;
18702;SDS011;9481;48.796;9.210;2022-08-07T19:13:07;1.20;;;1.10;;
18702;SDS011;9481;48.796;9.210;2022-08-07T19:15:54;1.67;;;0.80;;